Time;durP1;ratioP1;P1;durP2;ratioP2;P2;SDS_P1;SDS_P2;PMS_P1;PMS_P2;Temp;Humidity;BMP_temperature;BMP_pressure;BME280_temperature;BME280_humidity;BME280_pressure;Samples;Min_cycle;Max_cycle;Signal;HPM_P1;HPM_P2
2022/08/16 00:00:10;;;;;;;6.07;3.93;;;;;;;25.15;49.12;99654.50;1851958;77;20991;-67
2022/08/16 00:02:38;;;;;;;8.20;4.10;;;;;;;25.16;49.16;99667.77;1849291;77;20992;-67
2022/08/16 00:05:07;;;;;;;5.10;3.93;;;;;;;25.18;48.95;99673.66;1851682;77;21058;-68
2022/08/16 00:07:34;;;;;;;5.70;3.80;;;;;;;25.20;49.57;99691.02;1852044;77;20955;-69
2022/08/16 00:10:00;;;;;;;7.20;4.37;;;;;;;25.21;49.80;99689.88;1849286;77;20987;-68
2022/08/16 00:12:28;;;;;;;6.83;4.23;;;;;;;25.20;50.00;99698.64;1853074;77;21086;-68
2022/08/16 00:14:56;;;;;;;6.00;4.03;;;;;;;25.22;50.15;99696.91;1852190;77;21588;-68
2022/08/16 00:17:24;;;;;;;6.60;4.30;;;;;;;25.24;50.23;99691.86;1852064;77;21007;-68
2022/08/16 00:19:51;;;;;;;6.30;4.00;;;;;;;25.26;50.25;99688.16;1851431;77;20982;-68
2022/08/16 00:22:17;;;;;;;7.00;4.13;;;;;;;25.23;50.43;99695.73;1852086;77;21070;-68
2022/08/16 00:24:44;;;;;;;5.30;3.80;;;;;;;25.22;50.45;99688.13;1851771;77;20935;-69
2022/08/16 00:27:11;;;;;;;7.20;4.00;;;;;;;25.22;50.31;99683.25;1852236;77;21203;-68
2022/08/16 00:29:38;;;;;;;6.00;4.00;;;;;;;25.25;50.47;99683.86;1842035;77;20916;-68
2022/08/16 00:32:05;;;;;;;9.23;4.30;;;;;;;25.23;50.91;99686.95;1820671;78;21561;-69
2022/08/16 00:34:36;;;;;;;5.57;4.00;;;;;;;25.19;51.21;99678.53;1820872;78;21478;-69
2022/08/16 00:37:03;;;;;;;7.77;3.63;;;;;;;25.14;51.17;99682.41;1821116;78;21086;-69
2022/08/16 00:39:29;;;;;;;6.30;3.77;;;;;;;25.08;49.94;99678.41;1820555;78;21582;-68
2022/08/16 00:41:56;;;;;;;8.73;3.63;;;;;;;25.18;49.22;99681.07;1821068;78;21509;-67
2022/08/16 00:44:23;;;;;;;7.10;3.93;;;;;;;25.34;49.04;99682.97;1820836;78;21482;-67
2022/08/16 00:47:07;;;;;;;7.03;3.73;;;;;;;25.49;49.35;99686.00;1820768;78;21533;-67
2022/08/16 00:49:35;;;;;;;7.57;4.17;;;;;;;25.60;49.68;99680.64;1820748;78;20997;-68
2022/08/16 00:52:02;;;;;;;11.90;4.70;;;;;;;25.64;50.34;99680.66;1825090;77;21900;-68
2022/08/16 00:54:29;;;;;;;7.37;4.03;;;;;;;25.60;50.57;99682.56;1851776;77;20984;-67
2022/08/16 00:56:58;;;;;;;7.40;4.23;;;;;;;25.53;50.26;99679.19;1851635;77;21490;-68
2022/08/16 00:59:26;;;;;;;7.87;4.10;;;;;;;25.50;50.72;99678.02;1851883;77;21392;-68
2022/08/16 01:01:52;;;;;;;7.97;4.23;;;;;;;25.42;50.53;99670.13;1828114;77;21620;-69
2022/08/16 01:04:22;;;;;;;5.97;4.10;;;;;;;25.43;50.48;99675.80;1820758;78;21117;-68
2022/08/16 01:06:49;;;;;;;8.30;4.00;;;;;;;25.46;50.66;99690.08;1820730;78;21478;-69
2022/08/16 01:09:17;;;;;;;8.40;4.10;;;;;;;25.45;50.63;99705.70;1820510;78;21026;-68
2022/08/16 01:11:44;;;;;;;6.77;3.70;;;;;;;25.45;50.91;99709.02;1787368;77;21050;-68
2022/08/16 01:14:32;;;;;;;7.40;3.77;;;;;;;25.45;50.99;99723.47;1841261;77;21069;-68
2022/08/16 01:16:58;;;;;;;5.73;4.10;;;;;;;25.46;51.03;99722.30;1788158;80;21826;-68
2022/08/16 01:19:51;;;;;;;7.60;4.20;;;;;;;25.47;50.99;99714.32;1788448;80;21509;-68
2022/08/16 01:22:42;;;;;;;8.50;4.50;;;;;;;25.49;51.07;99710.61;1828462;77;21029;-68
2022/08/16 01:25:13;;;;;;;8.35;4.35;;;;;;;25.53;50.95;99707.12;1851637;77;21026;-68
2022/08/16 01:27:48;;;;;;;7.20;4.03;;;;;;;25.52;50.85;99702.83;1847188;77;20952;-68
2022/08/16 01:30:20;;;;;;;7.43;4.00;;;;;;;25.48;50.88;99704.95;1821538;77;22238;-68
2022/08/16 01:32:46;;;;;;;;;;;;;;;25.46;50.87;99701.80;1851168;77;21458;-69
2022/08/16 01:35:24;;;;;;;8.20;4.00;;;;;;;25.43;50.96;99699.81;1851768;77;20233;-69
2022/08/16 01:37:53;;;;;;;7.63;4.50;;;;;;;25.39;51.21;99704.47;1851913;77;21027;-69
2022/08/16 01:40:25;;;;;;;8.10;4.30;;;;;;;25.34;51.12;99701.32;1852581;77;21003;-68
2022/08/16 01:42:52;;;;;;;7.45;4.28;;;;;;;25.30;51.34;99700.48;1851956;77;21210;-68
2022/08/16 01:45:19;;;;;;;8.13;4.87;;;;;;;25.24;51.67;99695.97;1851535;77;20999;-68
2022/08/16 01:47:47;;;;;;;7.33;4.47;;;;;;;25.19;51.93;99695.71;1849059;77;20960;-68
2022/08/16 01:50:14;;;;;;;7.60;4.40;;;;;;;25.15;52.17;99694.12;1851671;77;21133;-67
2022/08/16 01:52:41;;;;;;;8.50;4.50;;;;;;;25.10;52.37;99695.20;1851876;77;21018;-68
2022/08/16 01:55:09;;;;;;;8.77;4.53;;;;;;;25.04;52.50;99698.88;1849348;77;21240;-68
2022/08/16 01:57:36;;;;;;;8.03;4.87;;;;;;;25.01;52.66;99690.64;1851304;77;21054;-69
2022/08/16 02:00:07;;;;;;;7.43;4.43;;;;;;;24.97;52.92;99690.58;1851771;77;21018;-69
2022/08/16 02:02:35;;;;;;;8.57;4.40;;;;;;;24.98;53.03;99692.76;1850788;77;21030;-69
2022/08/16 02:05:04;;;;;;;8.63;4.93;;;;;;;24.92;53.20;99689.57;1851559;77;20987;-68
2022/08/16 02:07:31;;;;;;;7.30;4.33;;;;;;;24.88;53.48;99690.70;1851861;77;21035;-68
2022/08/16 02:09:57;;;;;;;6.30;4.60;;;;;;;24.84;53.68;99692.01;1851632;77;20932;-68
2022/08/16 02:12:29;;;;;;;7.20;4.80;;;;;;;24.79;53.97;99685.53;1852250;77;21325;-68
2022/08/16 02:14:56;;;;;;;15.43;5.28;;;;;;;24.75;54.20;99677.89;1847271;77;21111;-68
2022/08/16 02:17:23;;;;;;;9.63;4.83;;;;;;;24.71;54.47;99671.02;1839100;77;20971;-68
2022/08/16 02:19:50;;;;;;;6.67;4.70;;;;;;;24.68;54.86;99669.04;1851837;77;21480;-68
2022/08/16 02:22:21;;;;;;;9.67;4.70;;;;;;;24.62;54.93;99670.53;1851386;77;21019;-68
2022/08/16 02:24:47;;;;;;;10.53;4.30;;;;;;;24.59;55.02;99668.55;1851757;77;20983;-68
2022/08/16 02:27:14;;;;;;;8.53;4.80;;;;;;;24.50;55.21;99656.54;1840460;77;20967;-68
2022/08/16 02:29:41;;;;;;;8.47;5.03;;;;;;;24.44;55.18;99653.93;1790053;80;21022;-68
2022/08/16 02:32:11;;;;;;;6.60;4.80;;;;;;;24.38;55.15;99651.29;1790120;80;21675;-68
2022/08/16 02:34:38;;;;;;;8.63;4.53;;;;;;;24.32;55.11;99652.22;1790000;80;21021;-69
2022/08/16 02:37:04;;;;;;;10.80;4.30;;;;;;;24.38;54.95;99654.02;1790299;79;21443;-69
2022/08/16 02:39:34;;;;;;;7.77;4.93;;;;;;;24.46;54.76;99652.20;1790109;80;21015;-67
2022/08/16 02:42:01;;;;;;;9.30;4.87;;;;;;;24.36;54.71;99642.70;1790357;80;21462;-68
2022/08/16 02:44:27;;;;;;;7.63;4.50;;;;;;;24.30;54.87;99642.24;1789821;80;21258;-69
2022/08/16 02:46:54;;;;;;;9.53;4.70;;;;;;;24.21;55.16;99640.38;1790232;80;21015;-68
2022/08/16 02:49:22;;;;;;;7.20;4.60;;;;;;;24.14;55.32;99642.23;1790216;79;20988;-69
2022/08/16 02:51:49;;;;;;;7.20;4.77;;;;;;;24.06;55.67;99638.05;1766310;80;21098;-68
2022/08/16 02:54:15;;;;;;;11.70;5.17;;;;;;;23.99;55.98;99635.83;1790229;80;20948;-68
2022/08/16 02:56:43;;;;;;;7.87;4.70;;;;;;;23.93;55.96;99635.34;1790498;80;21228;-68
2022/08/16 02:59:11;;;;;;;8.47;4.80;;;;;;;23.92;56.04;99630.25;1765947;80;21547;-68
2022/08/16 03:01:59;;;;;;;7.07;4.67;;;;;;;23.90;56.00;99634.72;1790217;78;21090;-69
2022/08/16 03:04:28;;;;;;;9.70;5.07;;;;;;;23.91;56.06;99631.41;1792679;78;20975;-68
2022/08/16 03:06:55;;;;;;;8.40;4.73;;;;;;;23.87;56.19;99638.19;1771995;78;20947;-69
2022/08/16 03:09:24;;;;;;;8.80;5.00;;;;;;;23.87;56.25;99638.19;1778705;80;21622;-69
2022/08/16 03:11:53;;;;;;;6.87;4.60;;;;;;;23.86;56.27;99633.89;1818666;79;20967;-69
2022/08/16 03:14:19;;;;;;;9.90;4.60;;;;;;;23.87;56.41;99631.37;1828142;77;21007;-68
2022/08/16 03:16:46;;;;;;;7.07;5.13;;;;;;;23.86;56.32;99636.04;1839603;77;21010;-68
2022/08/16 03:19:14;;;;;;;8.37;4.70;;;;;;;23.87;56.19;99628.64;1851908;77;20998;-68
2022/08/16 03:21:42;;;;;;;9.10;4.97;;;;;;;23.91;56.13;99626.74;1827433;77;21264;-68
2022/08/16 03:24:09;;;;;;;7.17;4.90;;;;;;;23.96;56.10;99627.80;1786429;78;20991;-68
2022/08/16 03:26:37;;;;;;;8.13;5.03;;;;;;;23.99;56.13;99630.37;1820852;78;20979;-68
2022/08/16 03:29:04;;;;;;;8.20;5.10;;;;;;;23.99;56.03;99629.78;1820926;78;20956;-69
2022/08/16 03:31:30;;;;;;;5.97;4.63;;;;;;;24.03;55.85;99630.61;1820891;78;20996;-69
2022/08/16 03:33:58;;;;;;;6.47;4.70;;;;;;;24.07;55.78;99630.07;1820610;78;21245;-68
2022/08/16 03:36:27;;;;;;;7.03;4.57;;;;;;;24.10;55.76;99629.91;1820513;78;20968;-68
2022/08/16 03:38:55;;;;;;;8.03;4.80;;;;;;;24.11;55.66;99617.25;1820849;78;21075;-68
2022/08/16 03:41:22;;;;;;;11.20;5.13;;;;;;;24.16;55.60;99634.47;1820960;78;21471;-66
2022/08/16 03:43:49;;;;;;;8.43;4.60;;;;;;;24.18;55.50;99637.60;1820703;78;20979;-67
2022/08/16 03:46:19;;;;;;;9.23;5.03;;;;;;;24.20;55.41;99633.35;1787692;78;21100;-67
2022/08/16 03:48:46;;;;;;;7.10;4.67;;;;;;;24.22;55.43;99635.70;1820761;78;21483;-66
2022/08/16 03:51:15;;;;;;;10.90;4.97;;;;;;;24.23;55.44;99635.92;1820552;78;20979;-68
2022/08/16 03:53:43;;;;;;;8.50;5.20;;;;;;;24.26;55.37;99644.73;1820424;78;21062;-68
2022/08/16 03:56:11;;;;;;;6.87;4.60;;;;;;;24.27;55.40;99639.47;1821011;78;21085;-69
2022/08/16 03:58:37;;;;;;;9.63;5.00;;;;;;;24.30;55.27;99635.42;1820650;77;21123;-68
2022/08/16 04:01:04;;;;;;;7.93;4.53;;;;;;;24.33;55.06;99632.53;1790418;79;20972;-68
2022/08/16 04:03:31;;;;;;;7.00;4.57;;;;;;;24.36;55.02;99630.42;1790068;79;21046;-69
2022/08/16 04:05:58;;;;;;;7.90;4.90;;;;;;;24.39;54.88;99632.41;1765948;80;21574;-69
2022/08/16 04:08:25;;;;;;;6.63;4.80;;;;;;;24.43;54.87;99630.53;1790080;79;20993;-68
2022/08/16 04:10:54;;;;;;;7.00;4.50;;;;;;;24.49;54.78;99631.77;1789970;80;21125;-68
2022/08/16 04:13:21;;;;;;;7.83;5.00;;;;;;;24.56;54.96;99632.43;1765917;80;21609;-68
2022/08/16 04:15:48;;;;;;;6.77;5.00;;;;;;;24.61;54.55;99634.03;1766192;80;21454;-68
2022/08/16 04:18:16;;;;;;;7.70;5.07;;;;;;;24.70;54.63;99629.06;1789866;80;21404;-67
2022/08/16 04:20:43;;;;;;;8.33;4.97;;;;;;;24.78;54.23;99628.77;1790188;80;20941;-69
2022/08/16 04:23:10;;;;;;;9.23;5.47;;;;;;;24.87;54.15;99627.66;1790396;80;21107;-68
2022/08/16 04:25:39;;;;;;;6.17;4.80;;;;;;;24.91;53.95;99629.28;1789975;80;20984;-68
2022/08/16 04:28:07;;;;;;;7.00;5.10;;;;;;;24.95;54.01;99632.82;1790276;80;21031;-68
2022/08/16 04:30:34;;;;;;;9.70;5.27;;;;;;;25.00;54.21;99631.68;1790168;79;20943;-68
2022/08/16 04:33:02;;;;;;;7.50;5.03;;;;;;;25.03;53.86;99631.70;1790513;80;21117;-68
2022/08/16 04:35:29;;;;;;;8.47;5.20;;;;;;;25.09;53.75;99634.11;1790211;80;21204;-68
2022/08/16 04:37:56;;;;;;;10.73;5.50;;;;;;;25.13;53.61;99641.20;1790264;80;21059;-68
2022/08/16 04:40:26;;;;;;;7.57;4.90;;;;;;;25.16;53.75;99634.97;1789980;80;21086;-69
2022/08/16 04:42:54;;;;;;;8.17;4.70;;;;;;;25.21;53.83;99635.23;1790182;79;20940;-69
2022/08/16 04:45:21;;;;;;;9.07;5.47;;;;;;;25.22;53.70;99641.67;1766163;80;21569;-67
2022/08/16 04:47:48;;;;;;;9.57;5.20;;;;;;;25.29;53.76;99640.94;1790136;80;21230;-68
2022/08/16 04:50:25;;;;;;;8.07;4.93;;;;;;;25.35;53.47;99638.06;1790090;80;20963;-68
2022/08/16 04:52:59;;;;;;;7.17;5.10;;;;;;;25.45;53.46;99647.51;1789728;80;20928;-68
2022/08/16 04:55:29;;;;;;;7.57;5.07;;;;;;;25.58;53.47;99652.09;1790047;80;21023;-69
2022/08/16 04:57:55;;;;;;;8.00;4.70;;;;;;;25.68;53.29;99654.11;1790346;80;21102;-69
2022/08/16 05:00:32;;;;;;;8.67;5.00;;;;;;;25.84;53.54;99660.69;1790123;78;21963;-68
2022/08/16 05:03:03;;;;;;;8.13;5.40;;;;;;;25.98;52.97;99663.50;1789544;78;21063;-68
2022/08/16 05:05:31;;;;;;;8.47;5.27;;;;;;;26.09;52.29;99666.28;1767355;81;20951;-68
2022/08/16 05:07:57;;;;;;;8.27;4.93;;;;;;;26.20;52.00;99662.44;1758697;81;21024;-68
2022/08/16 05:10:24;;;;;;;7.27;5.10;;;;;;;26.31;51.99;99663.84;1759033;81;21115;-68
2022/08/16 05:12:51;;;;;;;9.87;5.57;;;;;;;26.40;51.57;99670.34;1766366;80;21312;-69
2022/08/16 05:15:18;;;;;;;6.63;5.07;;;;;;;26.42;51.36;99669.36;1852064;77;20959;-69
2022/08/16 05:17:44;;;;;;;9.53;5.50;;;;;;;26.43;51.30;99672.31;1851766;77;20941;-69
2022/08/16 05:20:13;;;;;;;7.67;5.27;;;;;;;26.42;51.31;99678.94;1851597;77;21070;-70
2022/08/16 05:22:41;;;;;;;7.47;5.67;;;;;;;26.41;51.04;99683.63;1851912;77;21050;-68
2022/08/16 05:25:10;;;;;;;7.53;5.07;;;;;;;26.46;51.39;99686.61;1851728;77;21587;-69
2022/08/16 05:27:40;;;;;;;9.10;5.50;;;;;;;26.52;51.20;99688.39;1851852;77;21379;-68
2022/08/16 05:30:08;;;;;;;9.23;5.40;;;;;;;26.58;50.24;99689.59;1851665;77;21035;-69
2022/08/16 05:32:35;;;;;;;7.40;4.67;;;;;;;26.61;50.30;99696.45;1851925;77;21628;-68
2022/08/16 05:35:06;;;;;;;7.10;5.00;;;;;;;26.68;50.10;99697.65;1851888;77;20979;-68
2022/08/16 05:37:34;;;;;;;8.70;4.83;;;;;;;26.72;49.36;99695.14;1851798;77;21791;-68
2022/08/16 05:40:00;;;;;;;8.43;5.50;;;;;;;26.78;49.21;99691.41;1851635;77;21014;-68
2022/08/16 05:42:27;;;;;;;8.50;5.43;;;;;;;26.86;49.25;99700.64;1852173;77;20998;-68
2022/08/16 05:44:54;;;;;;;7.27;4.90;;;;;;;26.89;48.46;99699.09;1851489;77;20976;-68
2022/08/16 05:47:21;;;;;;;5.73;4.93;;;;;;;26.83;48.60;99700.05;1851893;77;21705;-69
2022/08/16 05:49:48;;;;;;;5.70;4.97;;;;;;;26.83;48.93;99704.74;1851733;77;21237;-68
2022/08/16 05:52:15;;;;;;;8.80;5.20;;;;;;;26.83;48.88;99707.48;1851695;77;21036;-68
2022/08/16 05:54:42;;;;;;;6.80;4.97;;;;;;;26.76;48.82;99708.25;1836687;77;21441;-68
2022/08/16 05:57:10;;;;;;;6.37;5.13;;;;;;;26.67;48.83;99702.34;1790431;79;21000;-68
2022/08/16 05:59:40;;;;;;;7.07;4.73;;;;;;;26.63;49.22;99696.08;1790054;80;21145;-68
2022/08/16 06:02:06;;;;;;;6.97;5.10;;;;;;;26.56;48.87;99700.95;1789172;78;21127;-69
2022/08/16 06:04:34;;;;;;;14.93;6.20;;;;;;;26.52;49.18;99709.74;1820803;78;21042;-69
2022/08/16 06:07:04;;;;;;;7.13;5.00;;;;;;;26.44;49.40;99694.41;1790213;78;21580;-68
2022/08/16 06:09:29;;;;;;;8.33;5.10;;;;;;;26.33;49.36;99697.11;1798099;79;21066;-69
2022/08/16 06:11:56;;;;;;;6.93;5.30;;;;;;;26.25;49.68;99690.02;1798381;79;21238;-68
2022/08/16 06:14:22;;;;;;;11.17;5.67;;;;;;;26.13;50.04;99710.89;1798242;79;21130;-68
2022/08/16 06:16:49;;;;;;;10.10;5.57;;;;;;;26.01;50.63;99717.47;1798071;79;20999;-68
2022/08/16 06:19:16;;;;;;;9.90;6.10;;;;;;;25.89;51.03;99724.02;1798194;79;21513;-68
2022/08/16 06:21:45;;;;;;;10.13;5.70;;;;;;;25.77;51.90;99732.52;1796539;79;21015;-69
2022/08/16 06:24:12;;;;;;;30.50;11.23;;;;;;;25.68;52.48;99726.59;1798079;79;21608;-69
2022/08/16 06:26:39;;;;;;;19.20;9.50;;;;;;;25.64;53.00;99743.55;1789993;80;21181;-69
2022/08/16 06:29:06;;;;;;;10.97;6.87;;;;;;;25.64;54.06;99749.03;1798199;79;21054;-68
2022/08/16 06:31:35;;;;;;;26.10;9.20;;;;;;;25.60;55.09;99744.90;1798240;79;20955;-69
2022/08/16 06:34:01;;;;;;;11.23;5.60;;;;;;;25.52;56.04;99734.27;1764786;79;21007;-68
2022/08/16 06:36:29;;;;;;;8.70;5.77;;;;;;;25.40;56.31;99741.61;1797860;79;21002;-69
2022/08/16 06:39:13;;;;;;;11.47;6.43;;;;;;;25.33;56.81;99752.45;1797961;79;22235;-69
2022/08/16 06:41:44;;;;;;;12.78;7.17;;;;;;;25.22;57.98;99780.27;1797291;79;21477;-72
2022/08/16 06:44:12;;;;;;;9.50;5.27;;;;;;;25.02;59.22;99778.27;1796247;79;20980;-71
2022/08/16 06:46:39;;;;;;;9.63;5.93;;;;;;;24.85;60.30;99787.05;1798195;79;20995;-72
2022/08/16 06:49:10;;;;;;;12.18;7.12;;;;;;;24.67;61.15;99795.00;1766301;79;21060;-71
2022/08/16 06:51:38;;;;;;;12.07;7.13;;;;;;;24.49;61.60;99807.06;1758278;81;21133;-70
2022/08/16 06:54:06;;;;;;;8.17;6.50;;;;;;;24.40;62.11;99811.39;1758233;81;21013;-71
2022/08/16 06:56:34;;;;;;;12.50;7.33;;;;;;;24.37;62.43;99812.13;1758007;81;21543;-71
2022/08/16 06:59:03;;;;;;;10.70;7.27;;;;;;;24.29;62.51;99813.97;1757672;81;21033;-70
2022/08/16 07:01:31;;;;;;;11.47;7.67;;;;;;;24.29;62.92;99813.19;1757800;81;21562;-69
2022/08/16 07:03:58;;;;;;;9.10;7.17;;;;;;;24.29;63.06;99822.73;1758597;81;21138;-70
2022/08/16 07:06:28;;;;;;;11.13;7.93;;;;;;;24.32;63.21;99824.16;1757981;81;21523;-70
2022/08/16 07:08:57;;;;;;;11.87;8.43;;;;;;;24.29;63.14;99817.28;1758159;81;20969;-70
2022/08/16 07:11:26;;;;;;;12.73;8.30;;;;;;;24.29;63.18;99826.83;1758253;81;20961;-69
2022/08/16 07:13:53;;;;;;;12.07;8.10;;;;;;;24.31;63.51;99819.83;1724484;81;21025;-72
2022/08/16 07:16:21;;;;;;;12.07;8.07;;;;;;;24.34;63.68;99823.19;1758273;81;21240;-70
2022/08/16 07:18:48;;;;;;;12.30;8.03;;;;;;;24.40;63.90;99825.03;1758206;81;20973;-71
2022/08/16 07:21:14;;;;;;;16.07;7.90;;;;;;;24.48;63.98;99816.39;1757377;81;21052;-70
2022/08/16 07:23:45;;;;;;;10.80;8.00;;;;;;;24.52;64.02;99808.48;1760689;79;21030;-71
2022/08/16 07:26:16;;;;;;;12.10;7.67;;;;;;;24.50;63.89;99802.59;1748449;79;21455;-70
2022/08/16 07:28:43;;;;;;;10.57;6.30;;;;;;;24.49;64.07;99807.06;1753665;81;21490;-69
2022/08/16 07:31:10;;;;;;;10.20;6.70;;;;;;;24.47;64.03;99815.61;1756169;79;21084;-72
2022/08/16 07:33:39;;;;;;;8.20;6.47;;;;;;;24.44;64.31;99814.98;1824396;77;22153;-71
2022/08/16 07:36:07;;;;;;;7.30;5.60;;;;;;;24.45;64.52;99819.30;1824344;77;20980;-70
2022/08/16 07:38:36;;;;;;;7.77;5.37;;;;;;;24.48;64.38;99817.20;1813040;78;21015;-71
2022/08/16 07:41:04;;;;;;;9.83;4.60;;;;;;;24.49;64.27;99813.31;1813386;79;21934;-70
2022/08/16 07:43:32;;;;;;;8.47;4.43;;;;;;;24.49;64.13;99813.89;1813238;79;21044;-70
2022/08/16 07:46:00;;;;;;;9.83;4.70;;;;;;;24.52;64.08;99804.38;1813347;79;21070;-71
2022/08/16 07:48:27;;;;;;;7.93;4.50;;;;;;;24.50;64.36;99818.19;1835749;77;21105;-72
2022/08/16 07:50:55;;;;;;;6.80;4.30;;;;;;;24.42;64.46;99809.12;1857028;77;20924;-71
2022/08/16 07:53:22;;;;;;;10.50;4.50;;;;;;;24.37;64.58;99803.94;1828754;78;21616;-71
2022/08/16 07:55:50;;;;;;;7.63;3.97;;;;;;;24.32;64.65;99805.63;1829603;78;21486;-70
2022/08/16 07:58:19;;;;;;;7.67;4.17;;;;;;;24.26;64.82;99816.06;1828325;78;21077;-71
2022/08/16 08:00:46;;;;;;;7.93;4.60;;;;;;;24.17;64.93;99802.47;1705026;77;10000391;-71
2022/08/16 08:03:13;;;;;;;10.43;4.40;;;;;;;24.12;65.23;99807.67;1829497;78;21151;-73
2022/08/16 08:05:39;;;;;;;7.37;4.07;;;;;;;24.04;65.57;99801.88;1842065;77;21023;-71
2022/08/16 08:08:07;;;;;;;6.73;3.77;;;;;;;23.97;65.79;99811.33;1827160;77;20936;-71
2022/08/16 08:10:34;;;;;;;7.43;3.70;;;;;;;23.91;65.89;99816.88;1857762;77;21600;-71
2022/08/16 08:13:01;;;;;;;5.00;3.53;;;;;;;23.84;65.99;99818.91;1857698;77;20989;-73
2022/08/16 08:15:28;;;;;;;5.50;3.67;;;;;;;23.82;66.21;99822.56;1857817;77;21199;-71
2022/08/16 08:17:55;;;;;;;6.43;3.30;;;;;;;23.77;66.52;99821.52;1857722;77;20936;-70
2022/08/16 08:20:26;;;;;;;6.67;3.50;;;;;;;23.68;66.86;99827.20;1856983;77;21071;-71
2022/08/16 08:22:57;;;;;;;4.57;3.17;;;;;;;23.54;67.69;99830.44;1858033;77;20956;-70
2022/08/16 08:25:25;;;;;;;5.35;3.22;;;;;;;23.43;67.98;99841.73;1826942;77;21651;-70
2022/08/16 08:27:53;;;;;;;6.83;3.10;;;;;;;23.37;68.20;99844.53;1857815;77;21137;-71
2022/08/16 08:30:19;;;;;;;5.30;3.10;;;;;;;23.28;68.53;99858.94;1858024;77;21066;-71
2022/08/16 08:32:47;;;;;;;5.60;3.50;;;;;;;23.20;68.81;99853.12;1857997;77;21053;-71
2022/08/16 08:35:14;;;;;;;6.43;3.40;;;;;;;23.17;68.96;99854.66;1857756;77;21014;-71
2022/08/16 08:37:42;;;;;;;7.67;3.47;;;;;;;23.15;69.13;99851.48;1858002;77;21038;-72
2022/08/16 08:40:10;;;;;;;7.47;3.37;;;;;;;23.17;69.33;99848.63;1857861;77;21117;-73
2022/08/16 08:42:39;;;;;;;7.00;3.70;;;;;;;23.19;69.47;99842.80;1857860;77;20982;-71
2022/08/16 08:45:07;;;;;;;6.23;3.70;;;;;;;23.21;69.42;99850.63;1857858;77;21004;-72
2022/08/16 08:47:35;;;;;;;6.77;4.00;;;;;;;23.25;69.58;99844.09;1854456;77;21006;-71
2022/08/16 08:50:04;;;;;;;7.27;3.37;;;;;;;23.29;69.69;99853.70;1852294;77;20924;-71
2022/08/16 08:52:32;;;;;;;6.90;3.40;;;;;;;23.31;69.78;99852.20;1831188;77;21219;-70
2022/08/16 08:55:02;;;;;;;6.23;3.80;;;;;;;23.35;69.96;99856.35;1830917;78;21026;-70
2022/08/16 08:57:28;;;;;;;5.53;3.70;;;;;;;23.36;70.24;99851.92;1852680;77;21069;-70
2022/08/16 08:59:57;;;;;;;5.10;3.50;;;;;;;23.39;70.26;99866.73;1853269;77;21560;-69
2022/08/16 09:02:24;;;;;;;7.50;3.57;;;;;;;23.46;70.34;99872.90;1857828;77;21030;-71
2022/08/16 09:04:52;;;;;;;7.50;3.30;;;;;;;23.48;70.47;99870.04;1857603;77;21067;-71
2022/08/16 09:07:21;;;;;;;7.10;3.17;;;;;;;23.61;70.60;99872.81;1857786;77;21526;-70
2022/08/16 09:09:48;;;;;;;6.20;3.17;;;;;;;23.74;70.64;99866.66;1854623;77;21030;-72
2022/08/16 09:12:17;;;;;;;4.57;3.33;;;;;;;23.86;70.40;99870.58;1846705;77;20962;-70
2022/08/16 09:14:46;;;;;;;5.87;3.70;;;;;;;23.97;70.25;99874.06;1796736;79;21061;-71
2022/08/16 09:30:17;;;;;;;5.27;3.60;;;;;;;25.50;68.36;99884.45;1776738;80;26968;-72
2022/08/16 09:32:45;;;;;;;5.80;4.13;;;;;;;25.54;66.23;99886.45;1753937;81;20902;-73
2022/08/16 09:35:11;;;;;;;6.80;4.37;;;;;;;25.54;65.89;99880.98;1743466;80;21809;-72
2022/08/16 09:37:38;;;;;;;5.63;4.20;;;;;;;25.47;65.74;99886.57;1706294;83;21042;-71
2022/08/16 09:40:08;;;;;;;5.80;4.10;;;;;;;25.48;65.87;99890.87;1759431;81;20969;-72
2022/08/16 09:42:36;;;;;;;5.43;4.40;;;;;;;25.48;65.51;99886.77;1722644;83;21043;-71
2022/08/16 09:45:07;;;;;;;7.60;5.13;;;;;;;25.44;65.22;99888.68;1759568;81;20979;-72
2022/08/16 09:47:39;;;;;;;7.30;5.20;;;;;;;25.38;65.05;99886.07;1722755;83;21440;-71
2022/08/16 09:50:08;;;;;;;6.57;4.63;;;;;;;25.32;64.87;99882.09;1759342;81;20986;-72
2022/08/16 09:52:36;;;;;;;7.00;4.90;;;;;;;25.23;64.77;99887.05;1722874;83;21024;-72
2022/08/16 09:55:08;;;;;;;6.87;4.90;;;;;;;25.15;65.11;99885.41;1759475;81;21025;-71
2022/08/16 09:57:37;;;;;;;6.97;5.43;;;;;;;25.09;65.27;99888.22;1722918;83;21011;-71
2022/08/16 10:00:07;;;;;;;6.50;5.37;;;;;;;25.13;65.80;99890.45;1759478;81;21111;-72
2022/08/16 10:02:36;;;;;;;6.63;5.73;;;;;;;25.19;65.92;99886.23;1721880;83;21046;-72
2022/08/16 10:05:03;;;;;;;7.90;5.77;;;;;;;25.25;65.86;99888.84;1759483;81;21069;-69
2022/08/16 10:07:30;;;;;;;6.87;5.70;;;;;;;25.30;65.59;99884.40;1722745;83;20968;-71
2022/08/16 10:09:59;;;;;;;7.90;5.70;;;;;;;25.34;65.61;99883.88;1759174;81;21021;-71
2022/08/16 10:15:15;;;;;;;6.57;5.40;;;;;;;25.45;65.15;99889.46;1727293;83;21052;-72
2022/08/16 10:17:45;;;;;;;6.57;5.40;;;;;;;25.38;64.11;99877.87;1727229;81;21591;-72
2022/08/16 10:20:13;;;;;;;7.10;5.67;;;;;;;25.30;64.63;99880.30;1698401;84;21023;-70
2022/08/16 10:22:40;;;;;;;7.43;5.63;;;;;;;25.15;64.55;99893.61;1698667;83;21027;-70
2022/08/16 10:25:08;;;;;;;8.67;5.90;;;;;;;25.08;65.19;99898.38;1698557;84;21343;-71
2022/08/16 10:27:35;;;;;;;10.47;5.70;;;;;;;25.02;65.34;99895.17;1698460;83;21486;-71
2022/08/16 10:30:04;;;;;;;10.33;5.90;;;;;;;24.98;65.73;99897.66;1698270;82;21081;-70
2022/08/16 10:32:31;;;;;;;8.33;5.83;;;;;;;24.87;65.84;99893.98;1698239;83;21054;-72
2022/08/16 10:34:58;;;;;;;8.33;5.77;;;;;;;24.85;65.94;99902.55;1697789;83;21078;-70
2022/08/16 10:37:24;;;;;;;7.40;5.57;;;;;;;24.86;66.08;99906.85;1698263;83;21090;-71
2022/08/16 10:39:51;;;;;;;8.17;5.90;;;;;;;24.90;66.13;99906.31;1697702;82;21031;-71
2022/08/16 10:42:18;;;;;;;7.00;5.33;;;;;;;24.89;66.23;99910.80;1698008;83;21462;-71
2022/08/16 10:44:45;;;;;;;7.43;6.03;;;;;;;24.97;66.86;99917.33;1697850;83;21050;-71
2022/08/16 10:47:12;;;;;;;7.33;5.57;;;;;;;25.06;66.64;99916.29;1698307;83;21059;-71
2022/08/16 10:49:39;;;;;;;7.43;5.90;;;;;;;25.20;66.66;99923.33;1697837;83;21212;-71
2022/08/16 10:52:06;;;;;;;8.53;5.93;;;;;;;25.29;66.28;99927.16;1697892;83;21020;-71
2022/08/16 10:54:33;;;;;;;9.60;5.63;;;;;;;25.32;65.55;99925.83;1697952;84;21039;-71
2022/08/16 10:57:02;;;;;;;7.10;5.70;;;;;;;25.42;65.80;99938.05;1698043;83;21098;-72
2022/08/16 10:59:32;;;;;;;7.13;5.90;;;;;;;25.55;65.78;99937.23;1645494;84;21019;-71
2022/08/16 11:02:00;;;;;;;7.30;5.70;;;;;;;25.65;65.49;99933.83;1698029;83;21978;-71
2022/08/16 11:04:26;;;;;;;7.57;5.40;;;;;;;25.78;65.19;99937.88;1697862;82;20984;-72
2022/08/16 11:06:53;;;;;;;6.53;5.40;;;;;;;25.94;64.99;99941.20;1698227;83;21062;-71
2022/08/16 11:09:20;;;;;;;7.63;5.83;;;;;;;26.10;64.41;99934.70;1698342;84;20971;-71
2022/08/16 11:11:47;;;;;;;7.57;5.80;;;;;;;26.16;63.42;99938.68;1707619;82;20977;-72
2022/08/16 11:14:15;;;;;;;8.10;5.87;;;;;;;26.18;62.89;99932.23;1721022;83;21071;-72
2022/08/16 11:16:42;;;;;;;6.53;5.57;;;;;;;26.14;62.25;99936.30;1727056;83;21014;-72
2022/08/16 11:19:09;;;;;;;8.50;5.80;;;;;;;26.12;62.41;99929.62;1691341;83;21151;-72
2022/08/16 11:21:36;;;;;;;8.77;5.83;;;;;;;26.10;62.41;99934.13;1725738;81;21074;-71
2022/08/16 11:24:03;;;;;;;7.87;6.07;;;;;;;26.09;62.37;99935.27;1728426;83;21057;-70
2022/08/16 11:26:30;;;;;;;8.77;6.07;;;;;;;26.06;62.09;99940.16;1692734;84;21976;-72
2022/08/16 11:28:57;;;;;;;8.70;6.23;;;;;;;26.01;62.05;99940.48;1723334;82;21048;-72
2022/08/16 11:31:24;;;;;;;7.23;5.97;;;;;;;25.89;62.62;99944.27;1728224;83;21121;-72
2022/08/16 11:33:50;;;;;;;8.00;6.50;;;;;;;25.85;62.95;99941.30;1686481;83;20982;-73
2022/08/16 11:36:18;;;;;;;10.23;6.43;;;;;;;25.83;62.89;99947.71;1728314;83;21461;-72
2022/08/16 11:38:45;;;;;;;7.70;6.00;;;;;;;25.78;63.15;99944.72;1692812;83;21205;-72
2022/08/16 11:41:12;;;;;;;8.67;6.80;;;;;;;25.75;63.17;99946.83;1723359;83;21084;-72
2022/08/16 11:43:40;;;;;;;9.70;6.67;;;;;;;25.70;63.32;99943.86;1723487;82;21197;-73
2022/08/16 11:46:11;;;;;;;8.33;6.53;;;;;;;25.67;63.79;99952.03;1723331;83;20986;-71
2022/08/16 11:48:39;;;;;;;9.98;7.58;;;;;;;25.68;64.04;99949.48;1728687;83;21049;-72
2022/08/16 11:51:05;;;;;;;9.33;6.90;;;;;;;25.73;63.95;99945.84;1693124;83;21823;-72